sensor_id;sensor_type;location;lat;lon;timestamp;P1;durP1;ratioP1;P2;durP2;ratioP2
13660;SDS011;6903;49.480;11.102;2023-04-08T00:01:29;14.50;;;10.80;;
13660;SDS011;6903;49.480;11.102;2023-04-08T00:03:54;15.33;;;10.80;;
13660;SDS011;6903;49.480;11.102;2023-04-08T00:06:20;15.70;;;11.10;;
13660;SDS011;6903;49.480;11.102;2023-04-08T00:08:45;13.20;;;11.20;;
13660;SDS011;6903;49.480;11.102;2023-04-08T00:11:10;14.50;;;11.20;;
13660;SDS011;6903;49.480;11.102;2023-04-08T00:13:36;14.00;;;10.90;;
13660;SDS011;6903;49.480;11.102;2023-04-08T00:16:01;14.23;;;10.90;;
13660;SDS011;6903;49.480;11.102;2023-04-08T00:18:27;13.17;;;10.00;;
13660;SDS011;6903;49.480;11.102;2023-04-08T00:20:53;13.43;;;10.93;;
13660;SDS011;6903;49.480;11.102;2023-04-08T00:23:18;14.57;;;10.53;;
13660;SDS011;6903;49.480;11.102;2023-04-08T00:25:45;12.60;;;11.27;;
13660;SDS011;6903;49.480;11.102;2023-04-08T00:28:10;14.07;;;11.00;;
13660;SDS011;6903;49.480;11.102;2023-04-08T00:30:36;12.33;;;10.60;;
13660;SDS011;6903;49.480;11.102;2023-04-08T00:33:01;14.30;;;10.70;;
13660;SDS011;6903;49.480;11.102;2023-04-08T00:35:26;13.27;;;11.13;;
13660;SDS011;6903;49.480;11.102;2023-04-08T00:37:52;13.47;;;10.60;;
13660;SDS011;6903;49.480;11.102;2023-04-08T00:40:17;13.03;;;10.30;;
13660;SDS011;6903;49.480;11.102;2023-04-08T00:42:42;13.57;;;10.63;;
13660;SDS011;6903;49.480;11.102;2023-04-08T00:45:08;13.17;;;10.57;;
13660;SDS011;6903;49.480;11.102;2023-04-08T00:47:34;14.63;;;10.73;;
13660;SDS011;6903;49.480;11.102;2023-04-08T00:50:00;13.83;;;11.20;;
13660;SDS011;6903;49.480;11.102;2023-04-08T00:52:25;15.57;;;11.70;;
13660;SDS011;6903;49.480;11.102;2023-04-08T00:54:50;15.27;;;11.20;;
13660;SDS011;6903;49.480;11.102;2023-04-08T00:57:16;12.93;;;10.43;;
13660;SDS011;6903;49.480;11.102;2023-04-08T00:59:41;13.77;;;11.13;;
13660;SDS011;6903;49.480;11.102;2023-04-08T01:02:15;13.03;;;11.10;;
13660;SDS011;6903;49.480;11.102;2023-04-08T01:07:26;13.27;;;10.43;;
13660;SDS011;6903;49.480;11.102;2023-04-08T01:09:55;13.83;;;11.20;;
13660;SDS011;6903;49.480;11.102;2023-04-08T01:12:26;14.50;;;11.70;;
13660;SDS011;6903;49.480;11.102;2023-04-08T01:15:02;14.33;;;10.97;;
13660;SDS011;6903;49.480;11.102;2023-04-08T01:17:30;14.80;;;11.77;;
13660;SDS011;6903;49.480;11.102;2023-04-08T01:19:58;13.00;;;10.73;;
13660;SDS011;6903;49.480;11.102;2023-04-08T01:25:33;13.40;;;10.73;;
13660;SDS011;6903;49.480;11.102;2023-04-08T01:28:06;14.80;;;11.60;;
13660;SDS011;6903;49.480;11.102;2023-04-08T01:30:34;12.63;;;10.67;;
13660;SDS011;6903;49.480;11.102;2023-04-08T01:33:02;14.47;;;10.97;;
13660;SDS011;6903;49.480;11.102;2023-04-08T01:35:29;14.90;;;11.20;;
13660;SDS011;6903;49.480;11.102;2023-04-08T01:37:56;13.87;;;10.93;;
13660;SDS011;6903;49.480;11.102;2023-04-08T01:40:22;13.13;;;10.97;;
13660;SDS011;6903;49.480;11.102;2023-04-08T01:42:47;15.17;;;11.67;;
13660;SDS011;6903;49.480;11.102;2023-04-08T01:45:14;13.43;;;10.97;;
13660;SDS011;6903;49.480;11.102;2023-04-08T01:47:41;13.63;;;11.00;;
13660;SDS011;6903;49.480;11.102;2023-04-08T01:50:08;13.87;;;10.77;;
13660;SDS011;6903;49.480;11.102;2023-04-08T01:52:34;13.87;;;11.60;;
13660;SDS011;6903;49.480;11.102;2023-04-08T01:55:02;14.43;;;11.80;;
13660;SDS011;6903;49.480;11.102;2023-04-08T01:57:29;13.70;;;11.37;;
13660;SDS011;6903;49.480;11.102;2023-04-08T02:00:00;14.20;;;10.83;;
13660;SDS011;6903;49.480;11.102;2023-04-08T02:02:29;13.90;;;11.23;;
13660;SDS011;6903;49.480;11.102;2023-04-08T02:04:56;15.77;;;11.40;;
13660;SDS011;6903;49.480;11.102;2023-04-08T02:07:22;13.70;;;10.93;;
13660;SDS011;6903;49.480;11.102;2023-04-08T02:09:48;12.73;;;10.57;;
13660;SDS011;6903;49.480;11.102;2023-04-08T02:12:14;13.10;;;10.93;;
13660;SDS011;6903;49.480;11.102;2023-04-08T02:14:39;14.50;;;11.57;;
13660;SDS011;6903;49.480;11.102;2023-04-08T02:17:09;15.37;;;11.63;;
13660;SDS011;6903;49.480;11.102;2023-04-08T02:19:40;15.23;;;11.50;;
13660;SDS011;6903;49.480;11.102;2023-04-08T02:22:12;14.53;;;10.83;;
13660;SDS011;6903;49.480;11.102;2023-04-08T02:24:43;17.73;;;12.13;;
13660;SDS011;6903;49.480;11.102;2023-04-08T02:27:10;13.97;;;11.43;;
13660;SDS011;6903;49.480;11.102;2023-04-08T02:29:36;14.33;;;11.07;;
13660;SDS011;6903;49.480;11.102;2023-04-08T02:32:04;13.40;;;11.23;;
13660;SDS011;6903;49.480;11.102;2023-04-08T02:34:30;14.30;;;11.77;;
13660;SDS011;6903;49.480;11.102;2023-04-08T02:36:56;13.93;;;11.13;;
13660;SDS011;6903;49.480;11.102;2023-04-08T02:39:29;14.63;;;11.20;;
13660;SDS011;6903;49.480;11.102;2023-04-08T02:41:55;14.50;;;10.80;;
13660;SDS011;6903;49.480;11.102;2023-04-08T02:44:21;13.57;;;11.30;;
13660;SDS011;6903;49.480;11.102;2023-04-08T02:46:46;14.23;;;10.90;;
13660;SDS011;6903;49.480;11.102;2023-04-08T02:49:11;13.37;;;11.00;;
13660;SDS011;6903;49.480;11.102;2023-04-08T02:51:37;13.43;;;11.13;;
13660;SDS011;6903;49.480;11.102;2023-04-08T02:54:02;13.63;;;11.33;;
13660;SDS011;6903;49.480;11.102;2023-04-08T02:56:27;14.50;;;11.60;;
13660;SDS011;6903;49.480;11.102;2023-04-08T02:58:52;17.40;;;12.57;;
13660;SDS011;6903;49.480;11.102;2023-04-08T03:01:19;14.23;;;11.43;;
13660;SDS011;6903;49.480;11.102;2023-04-08T03:03:44;16.77;;;12.10;;
13660;SDS011;6903;49.480;11.102;2023-04-08T03:06:09;14.40;;;11.53;;
13660;SDS011;6903;49.480;11.102;2023-04-08T03:08:35;15.27;;;11.83;;
13660;SDS011;6903;49.480;11.102;2023-04-08T03:11:00;16.37;;;11.90;;
13660;SDS011;6903;49.480;11.102;2023-04-08T03:13:26;15.47;;;12.30;;
13660;SDS011;6903;49.480;11.102;2023-04-08T03:15:51;15.13;;;12.67;;
13660;SDS011;6903;49.480;11.102;2023-04-08T03:18:16;14.90;;;12.00;;
13660;SDS011;6903;49.480;11.102;2023-04-08T03:20:41;14.47;;;11.63;;
13660;SDS011;6903;49.480;11.102;2023-04-08T03:23:07;15.47;;;12.17;;
13660;SDS011;6903;49.480;11.102;2023-04-08T03:25:32;17.07;;;13.13;;
13660;SDS011;6903;49.480;11.102;2023-04-08T03:27:57;13.47;;;12.00;;
13660;SDS011;6903;49.480;11.102;2023-04-08T03:30:23;14.97;;;12.13;;
13660;SDS011;6903;49.480;11.102;2023-04-08T03:32:48;16.57;;;12.97;;
13660;SDS011;6903;49.480;11.102;2023-04-08T03:35:13;17.20;;;12.43;;
13660;SDS011;6903;49.480;11.102;2023-04-08T03:37:39;13.70;;;12.10;;
13660;SDS011;6903;49.480;11.102;2023-04-08T03:40:04;15.70;;;12.00;;
13660;SDS011;6903;49.480;11.102;2023-04-08T03:42:30;15.73;;;12.67;;
13660;SDS011;6903;49.480;11.102;2023-04-08T03:44:56;15.93;;;12.20;;
13660;SDS011;6903;49.480;11.102;2023-04-08T03:47:21;16.47;;;12.77;;
13660;SDS011;6903;49.480;11.102;2023-04-08T03:49:46;17.13;;;12.57;;
13660;SDS011;6903;49.480;11.102;2023-04-08T03:52:12;16.97;;;12.67;;
13660;SDS011;6903;49.480;11.102;2023-04-08T03:54:37;17.47;;;12.97;;
13660;SDS011;6903;49.480;11.102;2023-04-08T03:57:02;15.30;;;12.13;;
13660;SDS011;6903;49.480;11.102;2023-04-08T03:59:28;14.87;;;12.73;;
13660;SDS011;6903;49.480;11.102;2023-04-08T04:01:53;16.23;;;12.13;;
13660;SDS011;6903;49.480;11.102;2023-04-08T04:04:18;17.23;;;12.97;;
13660;SDS011;6903;49.480;11.102;2023-04-08T04:06:44;17.73;;;13.20;;
13660;SDS011;6903;49.480;11.102;2023-04-08T04:09:09;18.50;;;13.57;;
13660;SDS011;6903;49.480;11.102;2023-04-08T04:11:35;19.30;;;12.60;;
13660;SDS011;6903;49.480;11.102;2023-04-08T04:14:00;16.10;;;12.70;;
13660;SDS011;6903;49.480;11.102;2023-04-08T04:16:26;13.77;;;11.80;;
13660;SDS011;6903;49.480;11.102;2023-04-08T04:18:51;16.73;;;12.77;;
13660;SDS011;6903;49.480;11.102;2023-04-08T04:21:17;16.23;;;12.50;;
13660;SDS011;6903;49.480;11.102;2023-04-08T04:23:42;15.93;;;12.93;;
13660;SDS011;6903;49.480;11.102;2023-04-08T04:26:08;16.17;;;12.30;;
13660;SDS011;6903;49.480;11.102;2023-04-08T04:28:34;17.80;;;12.07;;
13660;SDS011;6903;49.480;11.102;2023-04-08T04:30:59;14.83;;;12.20;;
13660;SDS011;6903;49.480;11.102;2023-04-08T04:33:25;15.47;;;12.53;;
13660;SDS011;6903;49.480;11.102;2023-04-08T04:35:51;16.87;;;12.80;;
13660;SDS011;6903;49.480;11.102;2023-04-08T04:38:16;15.87;;;11.37;;
13660;SDS011;6903;49.480;11.102;2023-04-08T04:40:41;16.30;;;12.63;;
13660;SDS011;6903;49.480;11.102;2023-04-08T04:43:08;13.93;;;11.67;;
13660;SDS011;6903;49.480;11.102;2023-04-08T04:45:33;15.63;;;12.07;;
13660;SDS011;6903;49.480;11.102;2023-04-08T04:47:59;13.83;;;11.73;;
13660;SDS011;6903;49.480;11.102;2023-04-08T04:50:24;14.80;;;11.63;;
13660;SDS011;6903;49.480;11.102;2023-04-08T04:52:50;16.27;;;11.73;;
13660;SDS011;6903;49.480;11.102;2023-04-08T04:55:15;14.13;;;11.60;;
13660;SDS011;6903;49.480;11.102;2023-04-08T04:57:40;16.33;;;12.40;;
13660;SDS011;6903;49.480;11.102;2023-04-08T05:00:06;13.83;;;11.17;;
13660;SDS011;6903;49.480;11.102;2023-04-08T05:02:32;13.07;;;11.67;;
13660;SDS011;6903;49.480;11.102;2023-04-08T05:04:58;15.10;;;11.70;;
13660;SDS011;6903;49.480;11.102;2023-04-08T05:07:23;14.27;;;11.30;;
13660;SDS011;6903;49.480;11.102;2023-04-08T05:09:48;14.47;;;11.03;;
13660;SDS011;6903;49.480;11.102;2023-04-08T05:12:14;13.00;;;11.20;;
13660;SDS011;6903;49.480;11.102;2023-04-08T05:14:40;13.33;;;11.20;;
13660;SDS011;6903;49.480;11.102;2023-04-08T05:17:06;14.77;;;11.77;;
13660;SDS011;6903;49.480;11.102;2023-04-08T05:19:31;13.73;;;11.20;;
13660;SDS011;6903;49.480;11.102;2023-04-08T05:21:56;15.90;;;11.27;;
13660;SDS011;6903;49.480;11.102;2023-04-08T05:24:22;13.97;;;11.50;;
13660;SDS011;6903;49.480;11.102;2023-04-08T05:26:47;19.37;;;12.50;;
13660;SDS011;6903;49.480;11.102;2023-04-08T05:29:16;16.43;;;11.50;;
13660;SDS011;6903;49.480;11.102;2023-04-08T05:31:42;17.93;;;12.33;;
13660;SDS011;6903;49.480;11.102;2023-04-08T05:34:08;14.30;;;10.53;;
13660;SDS011;6903;49.480;11.102;2023-04-08T05:36:34;14.27;;;11.07;;
13660;SDS011;6903;49.480;11.102;2023-04-08T05:38:59;13.90;;;10.57;;
13660;SDS011;6903;49.480;11.102;2023-04-08T05:41:24;12.47;;;9.43;;
13660;SDS011;6903;49.480;11.102;2023-04-08T05:43:50;10.47;;;8.70;;
13660;SDS011;6903;49.480;11.102;2023-04-08T05:46:15;10.50;;;8.40;;
13660;SDS011;6903;49.480;11.102;2023-04-08T05:48:41;10.30;;;8.63;;
13660;SDS011;6903;49.480;11.102;2023-04-08T05:51:11;12.13;;;8.97;;
13660;SDS011;6903;49.480;11.102;2023-04-08T05:53:37;10.37;;;8.00;;
13660;SDS011;6903;49.480;11.102;2023-04-08T05:56:02;10.20;;;8.20;;
13660;SDS011;6903;49.480;11.102;2023-04-08T05:58:28;9.97;;;8.43;;
13660;SDS011;6903;49.480;11.102;2023-04-08T06:00:53;11.40;;;8.37;;
13660;SDS011;6903;49.480;11.102;2023-04-08T06:03:19;8.43;;;7.20;;
13660;SDS011;6903;49.480;11.102;2023-04-08T06:05:44;9.20;;;7.07;;
13660;SDS011;6903;49.480;11.102;2023-04-08T06:08:10;9.00;;;7.50;;
13660;SDS011;6903;49.480;11.102;2023-04-08T06:10:35;9.63;;;7.67;;
13660;SDS011;6903;49.480;11.102;2023-04-08T06:13:00;8.50;;;7.27;;
13660;SDS011;6903;49.480;11.102;2023-04-08T06:15:25;12.37;;;9.37;;
13660;SDS011;6903;49.480;11.102;2023-04-08T06:17:51;10.17;;;8.17;;
13660;SDS011;6903;49.480;11.102;2023-04-08T06:20:17;10.97;;;7.63;;
13660;SDS011;6903;49.480;11.102;2023-04-08T06:22:42;10.87;;;8.53;;
13660;SDS011;6903;49.480;11.102;2023-04-08T06:25:07;10.97;;;8.97;;
13660;SDS011;6903;49.480;11.102;2023-04-08T06:27:33;10.80;;;8.33;;
13660;SDS011;6903;49.480;11.102;2023-04-08T06:29:58;11.40;;;9.60;;
13660;SDS011;6903;49.480;11.102;2023-04-08T06:32:23;11.67;;;8.50;;
13660;SDS011;6903;49.480;11.102;2023-04-08T06:34:49;10.53;;;8.47;;
13660;SDS011;6903;49.480;11.102;2023-04-08T06:37:14;11.63;;;9.30;;
13660;SDS011;6903;49.480;11.102;2023-04-08T06:39:39;11.10;;;9.20;;
13660;SDS011;6903;49.480;11.102;2023-04-08T06:42:05;12.07;;;9.70;;
13660;SDS011;6903;49.480;11.102;2023-04-08T06:44:30;10.57;;;9.13;;
13660;SDS011;6903;49.480;11.102;2023-04-08T06:46:56;11.77;;;9.87;;
13660;SDS011;6903;49.480;11.102;2023-04-08T06:49:21;12.77;;;10.17;;
13660;SDS011;6903;49.480;11.102;2023-04-08T06:51:46;12.87;;;9.83;;
13660;SDS011;6903;49.480;11.102;2023-04-08T06:54:12;12.63;;;9.73;;
13660;SDS011;6903;49.480;11.102;2023-04-08T06:56:38;13.10;;;9.97;;
13660;SDS011;6903;49.480;11.102;2023-04-08T06:59:03;12.07;;;10.20;;
13660;SDS011;6903;49.480;11.102;2023-04-08T07:01:28;12.67;;;9.57;;
13660;SDS011;6903;49.480;11.102;2023-04-08T07:03:54;15.73;;;11.23;;
13660;SDS011;6903;49.480;11.102;2023-04-08T07:06:20;16.40;;;11.30;;
13660;SDS011;6903;49.480;11.102;2023-04-08T07:08:46;13.57;;;9.73;;
13660;SDS011;6903;49.480;11.102;2023-04-08T07:11:11;14.27;;;10.83;;
13660;SDS011;6903;49.480;11.102;2023-04-08T07:13:36;15.47;;;11.20;;
13660;SDS011;6903;49.480;11.102;2023-04-08T07:16:02;12.17;;;10.20;;
13660;SDS011;6903;49.480;11.102;2023-04-08T07:18:27;13.80;;;10.40;;
13660;SDS011;6903;49.480;11.102;2023-04-08T07:20:52;12.13;;;9.30;;
13660;SDS011;6903;49.480;11.102;2023-04-08T07:23:18;12.03;;;9.63;;
13660;SDS011;6903;49.480;11.102;2023-04-08T07:25:44;12.13;;;9.77;;
13660;SDS011;6903;49.480;11.102;2023-04-08T07:28:10;12.43;;;8.90;;
13660;SDS011;6903;49.480;11.102;2023-04-08T07:30:35;10.57;;;7.80;;
13660;SDS011;6903;49.480;11.102;2023-04-08T07:33:01;8.97;;;6.87;;
13660;SDS011;6903;49.480;11.102;2023-04-08T07:35:26;9.67;;;7.60;;
13660;SDS011;6903;49.480;11.102;2023-04-08T07:37:52;9.30;;;6.97;;
13660;SDS011;6903;49.480;11.102;2023-04-08T07:40:17;9.13;;;7.23;;
13660;SDS011;6903;49.480;11.102;2023-04-08T07:42:43;10.47;;;7.67;;
13660;SDS011;6903;49.480;11.102;2023-04-08T07:45:08;9.07;;;7.40;;
13660;SDS011;6903;49.480;11.102;2023-04-08T07:47:34;9.40;;;7.63;;
13660;SDS011;6903;49.480;11.102;2023-04-08T07:49:59;8.43;;;7.60;;
13660;SDS011;6903;49.480;11.102;2023-04-08T07:52:25;9.40;;;7.80;;
13660;SDS011;6903;49.480;11.102;2023-04-08T07:54:50;10.90;;;8.67;;
13660;SDS011;6903;49.480;11.102;2023-04-08T07:57:15;10.43;;;8.47;;
13660;SDS011;6903;49.480;11.102;2023-04-08T07:59:41;10.30;;;8.80;;
13660;SDS011;6903;49.480;11.102;2023-04-08T08:02:06;11.30;;;8.57;;
13660;SDS011;6903;49.480;11.102;2023-04-08T08:04:31;11.07;;;8.60;;
13660;SDS011;6903;49.480;11.102;2023-04-08T08:06:56;11.27;;;9.37;;
13660;SDS011;6903;49.480;11.102;2023-04-08T08:09:22;13.53;;;10.20;;
13660;SDS011;6903;49.480;11.102;2023-04-08T08:11:47;12.77;;;9.80;;
13660;SDS011;6903;49.480;11.102;2023-04-08T08:14:13;11.53;;;9.03;;
13660;SDS011;6903;49.480;11.102;2023-04-08T08:16:38;11.17;;;9.17;;
13660;SDS011;6903;49.480;11.102;2023-04-08T08:19:04;11.03;;;9.17;;
13660;SDS011;6903;49.480;11.102;2023-04-08T08:21:31;11.83;;;9.23;;
13660;SDS011;6903;49.480;11.102;2023-04-08T08:23:57;11.03;;;8.97;;
13660;SDS011;6903;49.480;11.102;2023-04-08T08:26:23;13.93;;;9.93;;
13660;SDS011;6903;49.480;11.102;2023-04-08T08:28:49;11.33;;;9.20;;
13660;SDS011;6903;49.480;11.102;2023-04-08T08:31:14;10.20;;;8.70;;
13660;SDS011;6903;49.480;11.102;2023-04-08T08:33:40;10.90;;;8.77;;
13660;SDS011;6903;49.480;11.102;2023-04-08T08:36:05;14.00;;;9.70;;
13660;SDS011;6903;49.480;11.102;2023-04-08T08:38:31;13.00;;;10.03;;
13660;SDS011;6903;49.480;11.102;2023-04-08T08:40:59;14.07;;;10.10;;
13660;SDS011;6903;49.480;11.102;2023-04-08T08:43:25;14.43;;;10.97;;
13660;SDS011;6903;49.480;11.102;2023-04-08T08:45:52;21.17;;;10.87;;
13660;SDS011;6903;49.480;11.102;2023-04-08T08:48:26;13.50;;;10.40;;
13660;SDS011;6903;49.480;11.102;2023-04-08T08:50:51;14.57;;;11.27;;
13660;SDS011;6903;49.480;11.102;2023-04-08T08:53:16;13.10;;;10.10;;
13660;SDS011;6903;49.480;11.102;2023-04-08T08:55:43;13.13;;;10.83;;
13660;SDS011;6903;49.480;11.102;2023-04-08T08:58:09;14.63;;;10.87;;
13660;SDS011;6903;49.480;11.102;2023-04-08T09:00:35;14.27;;;9.87;;
13660;SDS011;6903;49.480;11.102;2023-04-08T09:08:22;12.50;;;9.77;;
13660;SDS011;6903;49.480;11.102;2023-04-08T09:11:10;11.07;;;9.47;;
13660;SDS011;6903;49.480;11.102;2023-04-08T09:13:38;12.07;;;9.07;;
13660;SDS011;6903;49.480;11.102;2023-04-08T09:16:04;10.03;;;8.97;;
13660;SDS011;6903;49.480;11.102;2023-04-08T09:18:33;11.23;;;9.10;;
13660;SDS011;6903;49.480;11.102;2023-04-08T09:21:01;11.70;;;9.63;;
13660;SDS011;6903;49.480;11.102;2023-04-08T09:28:42;14.17;;;9.50;;
13660;SDS011;6903;49.480;11.102;2023-04-08T09:31:18;10.87;;;9.33;;
13660;SDS011;6903;49.480;11.102;2023-04-08T09:33:44;10.90;;;9.33;;
13660;SDS011;6903;49.480;11.102;2023-04-08T09:36:11;10.27;;;9.17;;
13660;SDS011;6903;49.480;11.102;2023-04-08T09:38:36;12.40;;;9.47;;
13660;SDS011;6903;49.480;11.102;2023-04-08T09:41:02;11.60;;;9.60;;
13660;SDS011;6903;49.480;11.102;2023-04-08T09:43:31;10.93;;;9.63;;
13660;SDS011;6903;49.480;11.102;2023-04-08T09:46:00;11.07;;;9.77;;
13660;SDS011;6903;49.480;11.102;2023-04-08T09:48:28;10.63;;;9.17;;
13660;SDS011;6903;49.480;11.102;2023-04-08T09:51:02;12.37;;;9.33;;
13660;SDS011;6903;49.480;11.102;2023-04-08T09:53:35;10.03;;;8.37;;
13660;SDS011;6903;49.480;11.102;2023-04-08T09:56:09;10.63;;;9.00;;
13660;SDS011;6903;49.480;11.102;2023-04-08T09:58:50;11.90;;;8.50;;
13660;SDS011;6903;49.480;11.102;2023-04-08T10:01:21;10.00;;;9.00;;
13660;SDS011;6903;49.480;11.102;2023-04-08T10:03:53;10.33;;;9.03;;
13660;SDS011;6903;49.480;11.102;2023-04-08T10:06:21;10.80;;;8.60;;
13660;SDS011;6903;49.480;11.102;2023-04-08T10:08:51;11.00;;;9.57;;
13660;SDS011;6903;49.480;11.102;2023-04-08T10:11:17;13.50;;;9.03;;
13660;SDS011;6903;49.480;11.102;2023-04-08T10:13:43;12.63;;;8.67;;
13660;SDS011;6903;49.480;11.102;2023-04-08T10:18:48;9.13;;;8.23;;
13660;SDS011;6903;49.480;11.102;2023-04-08T10:24:14;8.57;;;7.53;;
13660;SDS011;6903;49.480;11.102;2023-04-08T10:31:46;9.53;;;8.50;;
13660;SDS011;6903;49.480;11.102;2023-04-08T10:34:22;9.20;;;7.87;;
13660;SDS011;6903;49.480;11.102;2023-04-08T10:36:51;8.77;;;7.97;;
13660;SDS011;6903;49.480;11.102;2023-04-08T10:39:18;9.63;;;8.63;;
13660;SDS011;6903;49.480;11.102;2023-04-08T10:41:47;11.43;;;9.03;;
13660;SDS011;6903;49.480;11.102;2023-04-08T10:44:23;9.67;;;8.47;;
13660;SDS011;6903;49.480;11.102;2023-04-08T10:46:50;9.97;;;8.90;;
13660;SDS011;6903;49.480;11.102;2023-04-08T10:49:17;9.10;;;8.20;;
13660;SDS011;6903;49.480;11.102;2023-04-08T10:51:43;9.47;;;8.57;;
13660;SDS011;6903;49.480;11.102;2023-04-08T10:54:14;10.63;;;9.17;;
13660;SDS011;6903;49.480;11.102;2023-04-08T10:56:47;9.70;;;8.70;;
13660;SDS011;6903;49.480;11.102;2023-04-08T10:59:26;10.57;;;9.37;;
13660;SDS011;6903;49.480;11.102;2023-04-08T11:01:56;9.10;;;7.83;;
13660;SDS011;6903;49.480;11.102;2023-04-08T11:04:22;9.17;;;8.17;;
13660;SDS011;6903;49.480;11.102;2023-04-08T11:06:47;9.30;;;7.77;;
13660;SDS011;6903;49.480;11.102;2023-04-08T11:09:13;8.73;;;7.83;;
13660;SDS011;6903;49.480;11.102;2023-04-08T11:11:41;9.63;;;8.03;;
13660;SDS011;6903;49.480;11.102;2023-04-08T11:14:07;13.80;;;8.63;;
13660;SDS011;6903;49.480;11.102;2023-04-08T11:16:33;9.33;;;7.50;;
13660;SDS011;6903;49.480;11.102;2023-04-08T11:19:00;20.17;;;9.13;;
13660;SDS011;6903;49.480;11.102;2023-04-08T11:21:26;10.40;;;7.70;;
13660;SDS011;6903;49.480;11.102;2023-04-08T11:23:53;9.03;;;7.10;;
13660;SDS011;6903;49.480;11.102;2023-04-08T11:26:19;9.03;;;7.03;;
13660;SDS011;6903;49.480;11.102;2023-04-08T11:28:45;13.47;;;7.77;;
13660;SDS011;6903;49.480;11.102;2023-04-08T11:31:13;7.53;;;6.83;;
13660;SDS011;6903;49.480;11.102;2023-04-08T11:33:43;9.30;;;7.63;;
13660;SDS011;6903;49.480;11.102;2023-04-08T11:36:09;15.00;;;8.53;;
13660;SDS011;6903;49.480;11.102;2023-04-08T11:38:37;12.53;;;7.90;;
13660;SDS011;6903;49.480;11.102;2023-04-08T11:41:05;25.67;;;9.63;;
13660;SDS011;6903;49.480;11.102;2023-04-08T11:43:30;8.63;;;7.10;;
13660;SDS011;6903;49.480;11.102;2023-04-08T11:45:56;8.30;;;7.33;;
13660;SDS011;6903;49.480;11.102;2023-04-08T11:48:21;9.17;;;8.00;;
13660;SDS011;6903;49.480;11.102;2023-04-08T11:50:47;13.47;;;8.20;;
13660;SDS011;6903;49.480;11.102;2023-04-08T11:53:27;7.90;;;7.10;;
13660;SDS011;6903;49.480;11.102;2023-04-08T11:55:52;12.50;;;7.87;;
13660;SDS011;6903;49.480;11.102;2023-04-08T11:58:18;9.13;;;7.20;;
13660;SDS011;6903;49.480;11.102;2023-04-08T12:00:43;7.53;;;6.67;;
13660;SDS011;6903;49.480;11.102;2023-04-08T12:03:09;8.53;;;7.03;;
13660;SDS011;6903;49.480;11.102;2023-04-08T12:05:35;13.73;;;10.77;;
13660;SDS011;6903;49.480;11.102;2023-04-08T12:08:01;9.30;;;7.00;;
13660;SDS011;6903;49.480;11.102;2023-04-08T12:10:26;7.00;;;6.30;;
13660;SDS011;6903;49.480;11.102;2023-04-08T12:12:52;8.37;;;6.27;;
13660;SDS011;6903;49.480;11.102;2023-04-08T12:15:17;10.23;;;6.40;;
13660;SDS011;6903;49.480;11.102;2023-04-08T12:17:42;9.13;;;6.07;;
13660;SDS011;6903;49.480;11.102;2023-04-08T12:20:08;11.67;;;7.00;;
13660;SDS011;6903;49.480;11.102;2023-04-08T12:22:34;6.37;;;5.67;;
13660;SDS011;6903;49.480;11.102;2023-04-08T12:25:00;13.57;;;6.33;;
13660;SDS011;6903;49.480;11.102;2023-04-08T12:27:27;6.93;;;6.27;;
13660;SDS011;6903;49.480;11.102;2023-04-08T12:29:52;10.47;;;6.47;;
13660;SDS011;6903;49.480;11.102;2023-04-08T12:32:18;25.00;;;7.97;;
13660;SDS011;6903;49.480;11.102;2023-04-08T12:34:43;15.90;;;7.40;;
13660;SDS011;6903;49.480;11.102;2023-04-08T12:37:08;12.80;;;5.87;;
13660;SDS011;6903;49.480;11.102;2023-04-08T12:39:34;6.60;;;5.30;;
13660;SDS011;6903;49.480;11.102;2023-04-08T12:41:59;13.70;;;5.80;;
13660;SDS011;6903;49.480;11.102;2023-04-08T12:44:25;6.13;;;5.23;;
13660;SDS011;6903;49.480;11.102;2023-04-08T12:46:50;5.33;;;4.83;;
13660;SDS011;6903;49.480;11.102;2023-04-08T12:49:15;6.87;;;4.73;;
13660;SDS011;6903;49.480;11.102;2023-04-08T12:51:41;7.93;;;5.83;;
13660;SDS011;6903;49.480;11.102;2023-04-08T12:54:06;10.47;;;5.30;;
13660;SDS011;6903;49.480;11.102;2023-04-08T12:56:32;5.50;;;4.77;;
13660;SDS011;6903;49.480;11.102;2023-04-08T12:58:58;5.37;;;4.87;;
13660;SDS011;6903;49.480;11.102;2023-04-08T13:01:24;5.50;;;4.70;;
13660;SDS011;6903;49.480;11.102;2023-04-08T13:03:50;12.37;;;5.77;;
13660;SDS011;6903;49.480;11.102;2023-04-08T13:06:15;7.33;;;5.00;;
13660;SDS011;6903;49.480;11.102;2023-04-08T13:08:40;16.60;;;6.73;;
13660;SDS011;6903;49.480;11.102;2023-04-08T13:11:06;22.00;;;7.50;;
13660;SDS011;6903;49.480;11.102;2023-04-08T13:13:32;5.93;;;4.90;;
13660;SDS011;6903;49.480;11.102;2023-04-08T13:15:57;4.93;;;4.50;;
13660;SDS011;6903;49.480;11.102;2023-04-08T13:18:22;5.03;;;4.47;;
13660;SDS011;6903;49.480;11.102;2023-04-08T13:20:48;9.83;;;4.67;;
13660;SDS011;6903;49.480;11.102;2023-04-08T13:23:13;6.67;;;4.80;;
13660;SDS011;6903;49.480;11.102;2023-04-08T13:25:39;5.10;;;4.40;;
13660;SDS011;6903;49.480;11.102;2023-04-08T13:28:04;4.93;;;4.43;;
13660;SDS011;6903;49.480;11.102;2023-04-08T13:30:30;5.43;;;4.40;;
13660;SDS011;6903;49.480;11.102;2023-04-08T13:32:55;5.73;;;4.47;;
13660;SDS011;6903;49.480;11.102;2023-04-08T13:35:20;5.30;;;4.20;;
13660;SDS011;6903;49.480;11.102;2023-04-08T13:37:46;4.23;;;3.70;;
13660;SDS011;6903;49.480;11.102;2023-04-08T13:40:11;5.70;;;4.13;;
13660;SDS011;6903;49.480;11.102;2023-04-08T13:42:37;5.17;;;4.33;;
13660;SDS011;6903;49.480;11.102;2023-04-08T13:45:03;7.70;;;5.40;;
13660;SDS011;6903;49.480;11.102;2023-04-08T13:47:28;5.57;;;4.30;;
13660;SDS011;6903;49.480;11.102;2023-04-08T13:49:54;5.10;;;4.17;;
13660;SDS011;6903;49.480;11.102;2023-04-08T13:52:19;4.80;;;4.00;;
13660;SDS011;6903;49.480;11.102;2023-04-08T13:54:44;5.73;;;4.40;;
13660;SDS011;6903;49.480;11.102;2023-04-08T13:57:10;5.80;;;4.07;;
13660;SDS011;6903;49.480;11.102;2023-04-08T13:59:35;6.20;;;4.13;;
13660;SDS011;6903;49.480;11.102;2023-04-08T14:02:01;4.17;;;3.40;;
13660;SDS011;6903;49.480;11.102;2023-04-08T14:04:26;4.70;;;3.97;;
13660;SDS011;6903;49.480;11.102;2023-04-08T14:06:51;6.37;;;4.57;;
13660;SDS011;6903;49.480;11.102;2023-04-08T14:09:17;4.63;;;3.80;;
13660;SDS011;6903;49.480;11.102;2023-04-08T14:11:43;4.30;;;3.90;;
13660;SDS011;6903;49.480;11.102;2023-04-08T14:14:08;3.87;;;3.50;;
13660;SDS011;6903;49.480;11.102;2023-04-08T14:16:34;4.30;;;3.40;;
13660;SDS011;6903;49.480;11.102;2023-04-08T14:19:00;4.20;;;3.37;;
13660;SDS011;6903;49.480;11.102;2023-04-08T14:21:25;3.67;;;3.10;;
13660;SDS011;6903;49.480;11.102;2023-04-08T14:23:50;4.20;;;3.63;;
13660;SDS011;6903;49.480;11.102;2023-04-08T14:26:16;3.50;;;3.20;;
13660;SDS011;6903;49.480;11.102;2023-04-08T14:28:41;3.50;;;3.20;;
13660;SDS011;6903;49.480;11.102;2023-04-08T14:31:07;3.80;;;3.20;;
13660;SDS011;6903;49.480;11.102;2023-04-08T14:33:32;3.63;;;3.33;;
13660;SDS011;6903;49.480;11.102;2023-04-08T14:35:57;3.83;;;3.43;;
13660;SDS011;6903;49.480;11.102;2023-04-08T14:38:23;3.60;;;3.30;;
13660;SDS011;6903;49.480;11.102;2023-04-08T14:40:49;3.40;;;3.10;;
13660;SDS011;6903;49.480;11.102;2023-04-08T14:43:14;4.60;;;3.50;;
13660;SDS011;6903;49.480;11.102;2023-04-08T14:45:40;3.50;;;3.20;;
13660;SDS011;6903;49.480;11.102;2023-04-08T14:48:05;3.77;;;3.20;;
13660;SDS011;6903;49.480;11.102;2023-04-08T14:50:30;3.77;;;3.00;;
13660;SDS011;6903;49.480;11.102;2023-04-08T14:52:56;3.20;;;2.60;;
13660;SDS011;6903;49.480;11.102;2023-04-08T14:55:21;3.77;;;3.00;;